Tiempo atmosférico en la estación meteorológica de Arico, Santa Cruz de Tenerife (418 m.)



Fecha
DESCASC
Temp. máxima en grados centígrados (hora)
DESCASC
Temp. mínima en grados centígrados (hora)
DESCASC
Temp. media en grados centígrados
DESCASC
Racha de viento máxima en m/sg (hora)
DESCASC
Velocidad máxima media en intervalos de 10 minutos(hora)
DESCASC
Precipitaciones diarias en mm
DESCASC
Precipitaciones de 00:00 a 06:00 en mm
DESCASC
Precipitaciones de 06:00 a 12:00 en mm
DESCASC
Precipitaciones de 12:00 a 18:00 en mm
DESCASC
Precipitaciones de 18:00 a 24:00 en mm
DESCASC
20-09-2018 25.7 (14:30) 18.5 (08:10) 22.1 9.17 (15:50) 6.39 (16:00) 0 0 0 0 0
19-09-2018 30.3 (14:50) 17.8 (07:30) 24 9.17 (18:50) 5.83 (05:00) 0 0 0 0 0
18-09-2018 25.1 (14:50) 17.9 (07:50) 21.5 10.56 (12:50) 6.67 (12:50) 0 0 0 0 0
17-09-2018 24.5 (15:20) 16.7 (08:00) 20.6 10 (17:50) 6.11 (17:30) 0 0 0 0 0
16-09-2018 24.3 (15:20) 17.8 (00:00) 21 9.17 (15:00) 6.11 (14:40) 0 0 0 0 0
15-09-2018 26 (15:20) 19.1 (00:00) 22.6 10.28 (19:50) 6.11 (19:50) 0 0 0 0 0
14-09-2018 28.5 (12:50) 20.5 (00:00) 24.5 8.06 (13:00) 4.44 (13:00) 0 0 0 0 0
13-09-2018 31.1 (17:40) 21.2 (00:00) 26.2 8.61 (15:50) 4.17 (15:40) 0 0 0 0 0
12-09-2018 27.1 (14:00) 17.1 (00:00) 22.1 10 (01:50) 6.11 (00:50) 0 0 0 0 0
11-09-2018 24.2 (12:30) 17.2 (00:00) 20.7 12.22 (15:50) 7.5 (16:00) 0 0 0 0 0
10-09-2018 24.7 (14:00) 17.2 (00:00) 21 15.28 (13:50) 9.72 (13:30) 0 0 0 0 0
09-09-2018 24.5 (14:30) 16 (00:00) 20.3 14.72 (12:50) 9.17 (15:30) 0 0 0 0 0
08-09-2018 23.3 (16:00) 16 (00:00) 19.6 13.33 (13:00) 9.17 (13:20) 0 0 0 0 0
07-09-2018 24.2 (12:50) 17.2 (00:00) 20.7 13.33 (10:50) 7.5 (13:30) 0 0 0 0 0
06-09-2018 24.8 (14:40) 18.7 (00:00) 21.8 11.67 (11:50) 7.78 (13:50) 0 0 0 0 0
05-09-2018 24.5 (14:40) 17.8 (00:00) 21.1 13.33 (14:20) 8.61 (13:30) 0 0 0 0 0
04-09-2018 24.5 (13:10) 17.4 (00:00) 20.9 11.67 (14:30) 8.06 (13:20) 0 0 0 0 0
03-09-2018 24.9 (15:20) 16.8 (00:00) 20.8 12.5 (14:10) 7.5 (12:50) 0 0 0 0 0
02-09-2018 24.5 (15:20) 16.6 (00:00) 20.6 11.39 (15:40) 7.22 (16:20) 0 0 0 0 0
01-09-2018 25.1 (14:40) 16.1 (00:00) 20.6 10.56 (13:20) 6.94 (13:00) 0 0 0 0 0
31-08-2018 25.5 (15:10) 16.9 (00:00) 21.2 15.28 (10:50) 8.61 (13:20) 0 0 0 0 0
30-08-2018 24.6 (16:20) 17.8 (00:00) 21.2 15.28 (12:50) 9.44 (14:30) 0 0 0 0 0
29-08-2018 24.3 (14:50) 18 (00:00) 21.1 20.83 (13:50) 11.11 (12:50) 0 0 0 0 0
28-08-2018 24.9 (14:50) 16.6 (00:00) 20.8 11.67 (15:50) 7.5 (17:40) 0 0 0 0 0
27-08-2018 24.9 (14:40) 17.6 (00:00) 21.3 13.33 (11:50) 7.22 (14:00) 0 0 0 0 0
26-08-2018 28.2 (11:50) 19.5 (00:00) 23.9 11.11 (11:50) 6.94 (11:50) 0 0 0 0 0
25-08-2018 31.8 (13:20) 21.5 (00:00) 26.6 9.44 (14:10) 6.11 (13:40) 0 0 0 0 0

Gráficas

Temp. máximas Temp. mínimas Temp. medias Precipitaciones Rachas de viento máximas Velocidades máximas media en intervalos de 10 minutos

Datos horarios

Fecha y hora oficial Temperatura (ºC) Velocidad del viento (km/h) Dirección del viento Racha (km/h) Dirección de racha Precipitación (mm) Presión (hPa) Tendencia (hPa) Humedad (%)
2018-09-23 23:00:00 23 10 Nordeste 19 Nordeste 0 -- -- 66
2018-09-23 22:00:00 24.5 6 Norte 15 Nordeste 0 -- -- 51
2018-09-23 21:00:00 24.1 8 Nordeste 21 Nordeste 0 -- -- 60
2018-09-23 20:00:00 22.1 10 Norte 22 Nordeste 0 -- -- 75
2018-09-23 19:00:00 22.8 16 Nordeste 29 Este 0 -- -- 79
2018-09-23 18:00:00 24 19 Nordeste 31 Este 0 -- -- 75
2018-09-23 17:00:00 26 15 Nordeste 30 Este 0 -- -- 68
2018-09-23 16:00:00 25.5 24 Nordeste 36 Este 0 -- -- 68
2018-09-23 15:00:00 27.8 19 Este 32 Este 0 -- -- 60
2018-09-23 14:00:00 26.6 23 Nordeste 32 Nordeste 0 -- -- 64
2018-09-23 13:00:00 27.6 17 Nordeste 25 Nordeste 0 -- -- 61
2018-09-23 12:00:00 27.5 15 Este 22 Nordeste 0 -- -- 59
2018-09-23 11:00:00 26.6 11 Nordeste 27 Nordeste 0 -- -- 58
2018-09-23 10:00:00 26.9 14 Nordeste 23 Nordeste 0 -- -- 48
2018-09-23 09:00:00 25.3 13 Nordeste 21 Nordeste 0 -- -- 47
2018-09-23 08:00:00 22.9 12 Nordeste 22 Norte 0 -- -- 54
2018-09-23 07:00:00 19.1 6 Norte 18 Nordeste 0 -- -- 80
2018-09-23 06:00:00 19 9 Nordeste 17 Nordeste 0 -- -- 84
2018-09-23 05:00:00 19.1 11 Nordeste 18 Nordeste 0 -- -- 81
2018-09-23 04:00:00 19 10 Nordeste 15 Norte 0 -- -- 80
2018-09-23 03:00:00 18.8 8 Norte 17 Nordeste 0 -- -- 80
2018-09-23 02:00:00 19 11 Nordeste 21 Nordeste 0 -- -- 84
2018-09-23 01:00:00 19.4 13 Nordeste 23 Nordeste 0 -- -- 82
2018-09-23 00:00:00 19.8 14 Nordeste 24 Nordeste 0 -- -- 80
2018-09-22 23:00:00 20 14 Nordeste 23 Nordeste 0 -- -- 78
2018-09-22 22:00:00 20 14 Nordeste 21 Nordeste 0 -- -- 82
2018-09-22 21:00:00 20.2 14 Nordeste 23 Nordeste 0 -- -- 85
2018-09-22 20:00:00 20.6 15 Nordeste 27 Nordeste 0 -- -- 82
2018-09-22 19:00:00 22.1 16 Nordeste 28 Este 0 -- -- 75
2018-09-22 18:00:00 23.5 18 Nordeste 34 Nordeste 0 -- -- 72
2018-09-22 17:00:00 24.3 20 Nordeste 35 Nordeste 0 -- -- 67
2018-09-22 16:00:00 24.4 22 Nordeste 39 Nordeste 0 -- -- 65
2018-09-22 15:00:00 24.5 24 Nordeste 37 Este 0 -- -- 63
2018-09-22 14:00:00 25.1 22 Nordeste 35 Nordeste 0 -- -- 62
2018-09-22 13:00:00 24.9 23 Nordeste 33 Este 0 -- -- 64
2018-09-22 12:00:00 24.9 17 Nordeste 32 Este 0 -- -- 62
2018-09-22 11:00:00 23.6 20 Este 31 Este 0 -- -- 59
2018-09-22 10:00:00 21.9 16 Nordeste 26 Nordeste 0 -- -- 64
2018-09-22 09:00:00 19.4 9 Nordeste 15 Norte 0 -- -- 77
2018-09-22 08:00:00 16.8 8 Noroeste 14 Norte 0 -- -- 79
2018-09-22 07:00:00 17.2 7 Norte 18 Nordeste 0 -- -- 79
2018-09-22 06:00:00 17.5 11 Norte 19 Norte 0 -- -- 81
2018-09-22 05:00:00 17 8 Norte 15 Norte 0 -- -- 78
2018-09-22 04:00:00 17.6 8 Norte 22 Nordeste 0 -- -- 83
2018-09-22 03:00:00 18.8 13 Nordeste 22 Nordeste 0 -- -- 84
2018-09-22 02:00:00 18.8 13 Nordeste 22 Nordeste 0 -- -- 85
2018-09-22 01:00:00 17.9 10 Norte 19 Nordeste 0 -- -- 84
2018-09-22 00:00:00 18.2 10 Nordeste 18 Nordeste 0 -- -- 86
2018-09-21 23:00:00 18.7 12 Nordeste 21 Nordeste 0 -- -- 84
2018-09-21 22:00:00 19.5 13 Nordeste 23 Nordeste 0 -- -- 83
2018-09-21 21:00:00 20.2 14 Nordeste 24 Nordeste 0 -- -- 81
2018-09-21 20:00:00 20.5 16 Nordeste 26 Nordeste 0 -- -- 81
2018-09-21 19:00:00 21.4 19 Nordeste 29 Nordeste 0 -- -- 77
2018-09-21 18:00:00 22.8 17 Nordeste 31 Este 0 -- -- 69
2018-09-21 17:00:00 24.1 17 Este 38 Este 0 -- -- 63
2018-09-21 16:00:00 24.3 22 Este 34 Este 0 -- -- 60
2018-09-21 15:00:00 24.5 21 Nordeste 35 Este 0 -- -- 60
2018-09-21 14:00:00 24.5 21 Nordeste 37 Nordeste 0 -- -- 58
2018-09-21 13:00:00 24 21 Nordeste 36 Este 0 -- -- 61
2018-09-21 12:00:00 22.5 22 Nordeste 35 Este 0 -- -- 67
2018-09-21 11:00:00 21.7 17 Nordeste 29 Nordeste 0 -- -- 74
2018-09-21 10:00:00 21.4 18 Nordeste 28 Nordeste 0 -- -- 73
2018-09-21 09:00:00 19.8 10 Nordeste 18 Nordeste 0 -- -- 79
2018-09-21 08:00:00 18.1 7 Norte 17 Norte 0 -- -- 85
2018-09-21 07:00:00 18.1 10 Norte 16 Norte 0 -- -- 85
2018-09-21 06:00:00 18.7 7 Norte 14 Nordeste 0 -- -- 85
2018-09-21 05:00:00 18.6 7 Nordeste 22 Nordeste 0 -- -- 87
2018-09-21 04:00:00 19.3 15 Nordeste 24 Nordeste 0 -- -- 89
2018-09-21 03:00:00 19.4 12 Nordeste 23 Nordeste 0 -- -- 89
2018-09-21 02:00:00 19.5 13 Nordeste 24 Nordeste 0 -- -- 88
2018-09-21 01:00:00 19.7 14 Nordeste 25 Nordeste 0 -- -- 89
2018-09-21 00:00:00 19.9 14 Nordeste 27 Nordeste 0 -- -- 90
2018-09-20 23:00:00 20.2 14 Nordeste 26 Nordeste 0 -- -- 92
2018-09-20 22:00:00 20.4 13 Nordeste 23 Este 0 -- -- 91
2018-09-20 21:00:00 20.6 12 Nordeste 22 Nordeste 0 -- -- 88
2018-09-20 20:00:00 20.9 15 Nordeste 25 Este 0 -- -- 86
2018-09-20 19:00:00 21.6 17 Nordeste 28 Este 0 -- -- 81
2018-09-20 18:00:00 23.1 18 Nordeste 30 Este 0 -- -- 74
2018-09-20 17:00:00 24.1 19 Nordeste 31 Este 0 -- -- 69
2018-09-20 16:00:00 24.8 23 Este 33 Este 0 -- -- 66
2018-09-20 15:00:00 25.3 19 Nordeste 31 Este 0 -- -- 65
2018-09-20 14:00:00 25.2 19 Este 29 Este 0 -- -- 66
2018-09-20 13:00:00 25.3 16 Este 25 Este 0 -- -- 67
2018-09-20 12:00:00 25 15 Este 25 Este 0 -- -- 70
2018-09-20 11:00:00 23.8 12 Este 24 Nordeste 0 -- -- 75
2018-09-20 10:00:00 22.4 10 Este 14 Nordeste 0 -- -- 78
2018-09-20 09:00:00 19.8 4 Nordeste 12 Noroeste 0 -- -- 89
2018-09-20 08:00:00 18.6 4 Norte 8 Norte 0 -- -- 89
2018-09-20 07:00:00 19.2 4 Norte 11 Nordeste 0 -- -- 91
2018-09-20 06:00:00 19.8 8 Nordeste 15 Nordeste 0 -- -- 94
2018-09-20 05:00:00 19.8 8 Nordeste 20 Nordeste 0 -- -- 94
2018-09-20 04:00:00 19.9 11 Nordeste 19 Nordeste 0 -- -- 94
2018-09-20 03:00:00 19.9 12 Nordeste 21 Este 0 -- -- 93
2018-09-20 02:00:00 20 13 Nordeste 22 Nordeste 0 -- -- 93
2018-09-20 01:00:00 20 15 Nordeste 24 Nordeste 0 -- -- 93
2018-09-20 00:00:00 20 15 Nordeste 26 Nordeste 0 -- -- 91
2018-09-19 23:00:00 20.2 15 Nordeste 26 Nordeste 0 -- -- 92
2018-09-19 22:00:00 20.5 15 Nordeste 22 Nordeste 0 -- -- 91
2018-09-19 21:00:00 20.6 14 Nordeste 22 Este 0 -- -- 90
2018-09-19 20:00:00 20.9 14 Nordeste 27 Nordeste 0 -- -- 88
2018-09-19 19:00:00 21.7 17 Nordeste 33 Este 0 -- -- 83
2018-09-19 18:00:00 23.5 16 Este 27 Este 0 -- -- 74
2018-09-19 17:00:00 25.5 15 Este 25 Este 0 -- -- 64
2018-09-19 16:00:00 27.2 12 Este 22 Este 0 -- -- 60
2018-09-19 15:00:00 29.8 14 Sudeste 27 Sudeste 0 -- -- 50
2018-09-19 14:00:00 28.3 12 Sur 26 Sur 0 -- -- 40
2018-09-19 13:00:00 23.3 10 Norte 21 Norte 0 -- -- 72
2018-09-19 12:00:00 21.6 13 Este 24 Este 0 -- -- 81
2018-09-19 11:00:00 22.3 17 Este 29 Este 0 -- -- 76
2018-09-19 10:00:00 23 14 Este 29 Este 0 -- -- 72
2018-09-19 09:00:00 20.4 8 Este 19 Norte 0 -- -- 82
2018-09-19 08:00:00 17.9 5 Noroeste 17 Norte 0 -- -- 83
2018-09-19 07:00:00 18.3 8 Norte 19 Nordeste 0 -- -- 85
2018-09-19 06:00:00 19.1 15 Nordeste 29 Nordeste 0 -- -- 91
2018-09-19 05:00:00 19.2 21 Nordeste 31 Este 0 -- -- 94
2018-09-19 04:00:00 19.3 12 Nordeste 32 Nordeste 0 -- -- 93
2018-09-19 03:00:00 19.2 17 Nordeste 27 Nordeste 0 -- -- 93
2018-09-19 02:00:00 19.5 18 Nordeste 33 Nordeste 0 -- -- 93
2018-09-19 01:00:00 19.4 15 Nordeste 27 Nordeste 0 -- -- 90
2018-09-19 00:00:00 19.2 13 Nordeste 25 Nordeste 0 -- -- 89
2018-09-18 23:00:00 19.6 15 Nordeste 24 Nordeste 0 -- -- 90
2018-09-18 22:00:00 19.8 13 Nordeste 23 Nordeste 0 -- -- 89
2018-09-18 21:00:00 19.8 9 Nordeste 27 Este 0 -- -- 86
2018-09-18 20:00:00 20.3 17 Nordeste 29 Nordeste 0 -- -- 83
2018-09-18 19:00:00 21 19 Nordeste 32 Este 0 -- -- 77
2018-09-18 18:00:00 22.5 20 Nordeste 32 Este 0 -- -- 74
2018-09-18 17:00:00 24.1 20 Nordeste 34 Este 0 -- -- 62
2018-09-18 16:00:00 25.1 19 Nordeste 33 Este 0 -- -- 57
2018-09-18 15:00:00 24.6 21 Nordeste 35 Nordeste 0 -- -- 60
2018-09-18 14:00:00 24.7 24 Nordeste 37 Nordeste 0 -- -- 58
2018-09-18 13:00:00 24.4 24 Nordeste 38 Nordeste 0 -- -- 59
2018-09-18 12:00:00 23.6 23 Nordeste 35 Nordeste 0 -- -- 63
2018-09-18 11:00:00 22.2 21 Nordeste 34 Este 0 -- -- 70
2018-09-18 10:00:00 20.1 18 Nordeste 32 Nordeste 0 -- -- 83
2018-09-18 09:00:00 20.2 13 Nordeste 25 Nordeste 0 -- -- 73
2018-09-18 08:00:00 18.1 12 Nordeste 22 Norte 0 -- -- 81
2018-09-18 07:00:00 18.5 14 Nordeste 23 Norte 0 -- -- 74
2018-09-18 06:00:00 18.6 11 Norte 25 Nordeste 0 -- -- 76
2018-09-18 05:00:00 18.9 15 Nordeste 26 Nordeste 0 -- -- 78
2018-09-18 04:00:00 18.8 17 Nordeste 28 Nordeste 0 -- -- 82
2018-09-18 03:00:00 18.9 13 Nordeste 20 Nordeste 0 -- -- 82
2018-09-18 02:00:00 18.9 11 Nordeste 19 Nordeste 0 -- -- 82
2018-09-18 01:00:00 18.8 6 Norte 12 Este 0 -- -- 83
2018-09-18 00:00:00 18.3 5 Noroeste 10 Noroeste 0 -- -- 82
2018-09-17 23:00:00 18.7 6 Norte 16 Nordeste 0 -- -- 82
2018-09-17 22:00:00 19.4 12 Nordeste 27 Nordeste 0 -- -- 81
2018-09-17 21:00:00 19.5 11 Nordeste 18 Este 0 -- -- 80
2018-09-17 20:00:00 19.8 11 Nordeste 23 Este 0 -- -- 77
2018-09-17 19:00:00 21.6 14 Nordeste 27 Este 0 -- -- 68
2018-09-17 18:00:00 22.1 22 Nordeste 36 Este 0 -- -- 64
2018-09-17 17:00:00 23.4 18 Nordeste 32 Este 0 -- -- 65
2018-09-17 16:00:00 23.5 19 Nordeste 30 Este 0 -- -- 64
2018-09-17 15:00:00 24.1 16 Este 32 Nordeste 0 -- -- 61
2018-09-17 14:00:00 23.4 17 Nordeste 29 Este 0 -- -- 65
2018-09-17 13:00:00 23.3 18 Este 27 Nordeste 0 -- -- 67
2018-09-17 12:00:00 22.2 15 Nordeste 25 Este 0 -- -- 69
2018-09-17 11:00:00 22.4 10 Nordeste 17 Nordeste 0 -- -- 68
2018-09-17 10:00:00 21.2 7 Sur 13 Sudoeste 0 -- -- 72
2018-09-17 09:00:00 19.1 7 Oeste 11 Sudoeste 0 -- -- 83
2018-09-17 08:00:00 16.7 6 Oeste 11 Noroeste 0 -- -- 86
2018-09-17 07:00:00 17.2 6 Noroeste 13 Noroeste 0 -- -- 82
2018-09-17 06:00:00 17.1 10 Noroeste 13 Noroeste 0 -- -- 80
2018-09-17 05:00:00 17.4 6 Noroeste 12 Noroeste 0 -- -- 80
2018-09-17 04:00:00 17.3 6 Noroeste 18 Oeste 0 -- -- 74
2018-09-17 03:00:00 17.8 11 Oeste 14 Oeste 0 -- -- 87
2018-09-17 02:00:00 17.6 6 Noroeste 10 Oeste 0 -- -- 87
2018-09-17 01:00:00 18.3 5 Oeste 15 Sudoeste 0 -- -- 87
2018-09-17 00:00:00 18.8 10 Oeste 13 Oeste 0 -- -- 86
2018-09-16 23:00:00 19.7 4 Sur 13 Nordeste 0 -- -- 84
2018-09-16 22:00:00 20 6 Este 20 Nordeste 0 -- -- 85
2018-09-16 21:00:00 20.3 8 Este 15 Este 0 -- -- 86
2018-09-16 20:00:00 20.5 10 Este 19 Este 0 -- -- 85
2018-09-16 19:00:00 21.3 14 Este 26 Este 0 -- -- 81
2018-09-16 18:00:00 22.1 15 Este 28 Nordeste 0 -- -- 77
2018-09-16 17:00:00 22.6 22 Este 32 Este 0 -- -- 77
2018-09-16 16:00:00 23.4 21 Nordeste 32 Este 0 -- -- 74
2018-09-16 15:00:00 23.4 22 Nordeste 33 Este 0 -- -- 74
2018-09-16 14:00:00 23.1 20 Nordeste 30 Nordeste 0 -- -- 74
2018-09-16 13:00:00 22.4 17 Nordeste 26 Nordeste 0 -- -- 79
2018-09-16 12:00:00 23.7 17 Este 28 Nordeste 0 -- -- 73
2018-09-16 11:00:00 23.6 17 Nordeste 27 Este 0 -- -- 71
2018-09-16 10:00:00 22.8 13 Este 20 Este 0 -- -- 73
2018-09-16 09:00:00 20.3 5 Nordeste 10 Noroeste 0 -- -- 69
2018-09-16 08:00:00 18.2 3 Nordeste 13 Norte 0 -- -- 77
2018-09-16 07:00:00 18.2 8 Norte 13 Norte 0 -- -- 73
2018-09-16 06:00:00 18.6 9 Norte 17 Nordeste 0 -- -- 70
2018-09-16 05:00:00 18 7 Noroeste 12 Noroeste 0 -- -- 82
2018-09-16 04:00:00 18.3 5 Norte 10 Nordeste 0 -- -- 89
2018-09-16 03:00:00 18.2 7 Noroeste 11 Noroeste 0 -- -- 82
2018-09-16 02:00:00 18.4 4 Noroeste 9 Oeste 0 -- -- 87
2018-09-16 01:00:00 19.2 3 Sudoeste 11 Nordeste 0 -- -- 87
2018-09-16 00:00:00 19.1 7 Norte 14 Nordeste 0 -- -- 88
2018-09-15 23:00:00 19.3 5 Norte 11 Nordeste 0 -- -- 85
2018-09-15 22:00:00 19.8 2 Este 11 Sudoeste 0 -- -- 83
2018-09-15 21:00:00 20.6 11 Sudoeste 27 Sudoeste 0 -- -- 81
2018-09-15 20:00:00 20.9 21 Sudoeste 37 Sudoeste 0 -- -- 81
2018-09-15 19:00:00 21.8 21 Sudoeste 33 Sudoeste 0 -- -- 78
2018-09-15 18:00:00 22.8 14 Sur 21 Sudeste 0 -- -- 73
2018-09-15 17:00:00 24.1 12 Sudeste 19 Sur 0 -- -- 68
2018-09-15 16:00:00 25.2 11 Sudeste 26 Este 0 -- -- 64
2018-09-15 15:00:00 25.6 11 Este 23 Sudeste 0 -- -- 61
2018-09-15 14:00:00 25.2 11 Nordeste 22 Este 0 -- -- 64
2018-09-15 13:00:00 23.9 10 Sudeste 17 Este 0 -- -- 71
2018-09-15 12:00:00 22.2 9 Este 15 Nordeste 0 -- -- 77
2018-09-15 11:00:00 20.9 9 Este 20 Nordeste 0 -- -- 84
2018-09-15 10:00:00 20.4 11 Este 18 Este 0 -- -- 87
2018-09-15 09:00:00 19.9 7 Este 18 Nordeste 0 -- -- 92
2018-09-15 08:00:00 19.7 12 Nordeste 18 Este 0 -- -- 94
2018-09-15 07:00:00 19.8 12 Nordeste 18 Este 0 -- -- 95
2018-09-15 06:00:00 20.1 11 Nordeste 17 Este 0 -- -- 95
2018-09-15 05:00:00 20.7 3 Nordeste 8 Nordeste 0 -- -- 94
2018-09-15 04:00:00 20.9 4 Nordeste 10 Nordeste 0 -- -- 94
2018-09-15 03:00:00 20.8 6 Nordeste 14 Nordeste 0 -- -- 95
2018-09-15 02:00:00 21 5 Norte 11 Nordeste 0 -- -- 94
2018-09-15 01:00:00 21.1 8 Nordeste 13 Nordeste 0 -- -- 95
2018-09-15 00:00:00 21.4 5 Nordeste 9 Nordeste 0 -- -- 93
2018-09-14 23:00:00 21.5 5 Nordeste 10 Nordeste 0 -- -- 93
2018-09-14 22:00:00 21.3 9 Nordeste 15 Nordeste 0 -- -- 94
2018-09-14 21:00:00 21.8 9 Nordeste 16 Nordeste 0 -- -- 92
2018-09-14 20:00:00 22.6 7 Nordeste 13 Nordeste 0 -- -- 88
2018-09-14 19:00:00 23.6 7 Nordeste 14 Nordeste 0 -- -- 84
2018-09-14 18:00:00 25.1 9 Nordeste 16 Nordeste 0 -- -- 77
2018-09-14 17:00:00 25.9 9 Este 18 Nordeste 0 -- -- 71
2018-09-14 16:00:00 27.3 10 Este 18 Nordeste 0 -- -- 67
2018-09-14 15:00:00 27.8 10 Este 23 Este 0 -- -- 64
2018-09-14 14:00:00 28 13 Este 26 Este 0 -- -- 60
2018-09-14 13:00:00 28.3 16 Este 29 Este 0 -- -- 57
2018-09-14 12:00:00 28.3 15 Este 22 Este 0 -- -- 55
2018-09-14 11:00:00 26.4 9 Este 17 Nordeste 0 -- -- 65
2018-09-14 10:00:00 24.7 8 Este 12 Este 0 -- -- 71
2018-09-14 09:00:00 23 7 Nordeste 13 Norte 0 -- -- 67
2018-09-14 08:00:00 20.9 5 Norte 9 Norte 0 -- -- 73
2018-09-14 07:00:00 20.8 5 Noroeste 12 Norte 0 -- -- 75
2018-09-14 06:00:00 20.5 7 Noroeste 11 Nordeste 0 -- -- 77
2018-09-14 05:00:00 20.9 6 Nordeste 14 Nordeste 0 -- -- 75
2018-09-14 04:00:00 21 8 Norte 17 Norte 0 -- -- 75
2018-09-14 03:00:00 20.8 6 Norte 9 Norte 0 -- -- 80
2018-09-14 02:00:00 21.2 3 Sur 9 Este 0 -- -- 81
2018-09-14 01:00:00 21.3 6 Nordeste 13 Norte 0 -- -- 83
2018-09-14 00:00:00 21.8 8 Norte 14 Nordeste 0 -- -- 79
2018-09-13 23:00:00 22.4 6 Norte 8 Nordeste 0 -- -- 83
2018-09-13 22:00:00 24.6 3 Sudoeste 13 Nordeste 0 -- -- 70
2018-09-13 21:00:00 25.4 5 Norte 8 Norte 0 -- -- 54
2018-09-13 20:00:00 26.7 4 Este 9 Sudeste 0 -- -- 51
2018-09-13 19:00:00 28.6 4 Sudeste 15 Sudeste 0 -- -- 43
2018-09-13 18:00:00 30.7 9 Sudeste 17 Este 0 -- -- 40
2018-09-13 17:00:00 30.7 8 Sudeste 24 Sur 0 -- -- 41
2018-09-13 16:00:00 30.8 13 Sur 31 Sudeste 0 -- -- 40
2018-09-13 15:00:00 29.1 9 Sudeste 17 Sur 0 -- -- 48
2018-09-13 14:00:00 27.8 8 Sudeste 12 Sudeste 0 -- -- 56
2018-09-13 13:00:00 27.2 6 Sudeste 14 Sudeste 0 -- -- 62
2018-09-13 12:00:00 26.4 5 Este 10 Nordeste 0 -- -- 61
2018-09-13 11:00:00 25.9 4 Este 10 Este 0 -- -- 63
2018-09-13 10:00:00 26.6 5 Nordeste 10 Este 0 -- -- 61
2018-09-13 09:00:00 23.9 5 Nordeste 8 Nordeste 0 -- -- 70
2018-09-13 08:00:00 22.1 2 Sur 9 Noroeste 0 -- -- 76
2018-09-13 07:00:00 21.5 5 Noroeste 10 Noroeste 0 -- -- 79
2018-09-13 06:00:00 21.4 4 Noroeste 13 Norte 0 -- -- 81
2018-09-13 05:00:00 21.2 4 Este 9 Este 0 -- -- 83
2018-09-13 04:00:00 21.3 4 Norte 14 Norte 0 -- -- 83
2018-09-13 03:00:00 21.3 4 Noroeste 16 Norte 0 -- -- 85
2018-09-13 02:00:00 21.2 6 Nordeste 14 Nordeste 0 -- -- 87
2018-09-13 01:00:00 21.3 3 Nordeste 8 Nordeste 0 -- -- 87
2018-09-13 00:00:00 21.6 3 Este 13 Este 0 -- -- 88
2018-09-12 23:00:00 22 6 Este 12 Este 0 -- -- 88
2018-09-12 22:00:00 22.9 6 Noroeste 14 Este 0 -- -- 84
2018-09-12 21:00:00 24.9 2 Sudeste 7 Este 0 -- -- 73
2018-09-12 20:00:00 26 3 Sudeste 13 Sudeste 0 -- -- 63
2018-09-12 19:00:00 26.7 8 Sur 19 Sudoeste 0 -- -- 61
2018-09-12 18:00:00 26.9 6 Sur 16 Sudoeste 0 -- -- 61
2018-09-12 17:00:00 25.7 11 Sudoeste 21 Sudoeste 0 -- -- 65
2018-09-12 16:00:00 25.6 9 Sur 21 Sudeste 0 -- -- 65
2018-09-12 15:00:00 25.7 5 Sur 19 Sur 0 -- -- 65
2018-09-12 14:00:00 27.1 4 Este 14 Nordeste 0 -- -- 60
2018-09-12 13:00:00 25.2 4 Nordeste 13 Este 0 -- -- 65
2018-09-12 12:00:00 24.4 7 Nordeste 17 Este 0 -- -- 68
2018-09-12 11:00:00 22.3 8 Nordeste 16 Este 0 -- -- 74
2018-09-12 10:00:00 21.7 4 Norte 10 Nordeste 0 -- -- 72
2018-09-12 09:00:00 19.1 3 Noroeste 15 Noroeste 0 -- -- 71
2018-09-12 08:00:00 17.2 11 Noroeste 21 Norte 0 -- -- 76
2018-09-12 07:00:00 17.2 8 Norte 20 Nordeste 0 -- -- 79
2018-09-12 06:00:00 17.7 9 Nordeste 17 Nordeste 0 -- -- 69
2018-09-12 05:00:00 17.3 6 Norte 19 Nordeste 0 -- -- 72
2018-09-12 04:00:00 18 8 Nordeste 33 Nordeste 0 -- -- 85
2018-09-12 03:00:00 18.9 19 Nordeste 35 Nordeste 0 -- -- 92
2018-09-12 02:00:00 18.9 14 Nordeste 36 Nordeste 0 -- -- 87
2018-09-12 01:00:00 19 22 Nordeste 33 Nordeste 0 -- -- 91
2018-09-12 00:00:00 18.5 14 Nordeste 25 Norte 0 -- -- 83
2018-09-11 23:00:00 18.9 13 Nordeste 21 Nordeste 0 -- -- 83
2018-09-11 22:00:00 19.1 9 Norte 20 Nordeste 0 -- -- 86
2018-09-11 21:00:00 19.3 9 Nordeste 23 Nordeste 0 -- -- 82
2018-09-11 20:00:00 20.2 14 Nordeste 26 Nordeste 0 -- -- 82
2018-09-11 19:00:00 21.6 19 Nordeste 37 Nordeste 0 -- -- 73
2018-09-11 18:00:00 22 23 Nordeste 37 Este 0 -- -- 70
2018-09-11 17:00:00 23.4 24 Nordeste 40 Nordeste 0 -- -- 61
2018-09-11 16:00:00 22.3 27 Nordeste 44 Nordeste 0 -- -- 67
2018-09-11 15:00:00 21.1 26 Nordeste 42 Nordeste 0 -- -- 74
2018-09-11 14:00:00 23 22 Nordeste 37 Este 0 -- -- 69
2018-09-11 13:00:00 23 25 Nordeste 39 Nordeste 0 -- -- 69
2018-09-11 12:00:00 23.7 17 Nordeste 34 Este 0 -- -- 57
2018-09-11 11:00:00 23.7 14 Este 25 Nordeste 0 -- -- 58
2018-09-11 10:00:00 21.5 9 Sur 18 Sudoeste 0 -- -- 62
2018-09-11 09:00:00 19.7 9 Sur 22 Oeste 0 -- -- 65
2018-09-11 08:00:00 17.7 18 Oeste 24 Oeste 0 -- -- 69
2018-09-11 07:00:00 17.3 9 Noroeste 16 Noroeste 0 -- -- 70
2018-09-11 06:00:00 17.4 8 Noroeste 14 Oeste 0 -- -- 76
2018-09-11 05:00:00 17.3 5 Norte 18 Oeste 0 -- -- 72
2018-09-11 04:00:00 17.7 13 Oeste 19 Oeste 0 -- -- 76
2018-09-11 03:00:00 17.9 9 Oeste 13 Oeste 0 -- -- 79
2018-09-11 02:00:00 17.8 4 Norte 14 Noroeste 0 -- -- 73
2018-09-11 01:00:00 18.5 3 Noroeste 23 Nordeste 0 -- -- 79
2018-09-11 00:00:00 18.3 5 Noroeste 19 Nordeste 0 -- -- 71
2018-09-10 23:00:00 18.4 7 Noroeste 18 Nordeste 0 -- -- 70
2018-09-10 22:00:00 18.9 11 Nordeste 22 Nordeste 0 -- -- 70
2018-09-10 21:00:00 19.5 19 Nordeste 31 Nordeste 0 -- -- 72
2018-09-10 20:00:00 20 17 Nordeste 37 Nordeste 0 -- -- 74
2018-09-10 19:00:00 21.1 24 Nordeste 44 Nordeste 0 -- -- 68
2018-09-10 18:00:00 22.3 27 Nordeste 44 Este 0 -- -- 69
2018-09-10 17:00:00 23.8 27 Nordeste 46 Nordeste 0 -- -- 58
2018-09-10 16:00:00 24.3 26 Nordeste 45 Nordeste 0 -- -- 59
2018-09-10 15:00:00 24.4 30 Nordeste 54 Este 0 -- -- 56
2018-09-10 14:00:00 24.7 28 Nordeste 55 Este 0 -- -- 56
2018-09-10 13:00:00 24.4 27 Nordeste 49 Este 0 -- -- 55
2018-09-10 12:00:00 23.4 28 Nordeste 47 Nordeste 0 -- -- 60
2018-09-10 11:00:00 23.4 26 Nordeste 42 Este 0 -- -- 55
2018-09-10 10:00:00 20.2 7 Sudoeste 18 Sudoeste 0 -- -- 64
2018-09-10 09:00:00 19.7 10 Oeste 16 Oeste 0 -- -- 64
2018-09-10 08:00:00 17.6 5 Noroeste 17 Noroeste 0 -- -- 60
2018-09-10 07:00:00 17.5 4 Oeste 23 Nordeste 0 -- -- 66
2018-09-10 06:00:00 18.2 9 Este 25 Nordeste 0 -- -- 64
2018-09-10 05:00:00 18.2 12 Nordeste 35 Nordeste 0 -- -- 68
2018-09-10 04:00:00 18.6 19 Nordeste 30 Nordeste 0 -- -- 66
2018-09-10 03:00:00 18.5 15 Nordeste 28 Nordeste 0 -- -- 74
2018-09-10 02:00:00 18.7 17 Nordeste 35 Nordeste 0 -- -- 87
2018-09-10 01:00:00 19.2 19 Nordeste 40 Nordeste 0 -- -- 80
2018-09-10 00:00:00 19.6 20 Nordeste 34 Nordeste 0 -- -- 74
2018-09-09 23:00:00 19.9 20 Nordeste 52 Nordeste 0 -- -- 68
2018-09-09 22:00:00 20.3 19 Nordeste 46 Nordeste 0 -- -- 65
2018-09-09 21:00:00 20.5 27 Nordeste 50 Nordeste 0 -- -- 62
2018-09-09 20:00:00 20.6 22 Nordeste 46 Nordeste 0 -- -- 62
2018-09-09 19:00:00 22.2 27 Nordeste 45 Nordeste 0 -- -- 55
2018-09-09 18:00:00 23.5 26 Nordeste 46 Nordeste 0 -- -- 56
2018-09-09 17:00:00 23.3 28 Nordeste 42 Este 0 -- -- 56
2018-09-09 16:00:00 23.4 30 Este 49 Nordeste 0 -- -- 54
2018-09-09 15:00:00 23.7 30 Nordeste 48 Este 0 -- -- 55
2018-09-09 14:00:00 23.6 32 Nordeste 46 Nordeste 0 -- -- 56
2018-09-09 13:00:00 23.9 28 Este 53 Este 0 -- -- 56
2018-09-09 12:00:00 22.9 28 Nordeste 44 Este 0 -- -- 57
2018-09-09 11:00:00 22.1 27 Nordeste 51 Nordeste 0 -- -- 64
2018-09-09 10:00:00 21.2 25 Nordeste 44 Nordeste 0 -- -- 62
2018-09-09 09:00:00 19.7 16 Nordeste 27 Nordeste 0 -- -- 60
2018-09-09 08:00:00 16.2 10 Norte 21 Nordeste 0 -- -- 72
2018-09-09 07:00:00 16 9 Noroeste 15 Noroeste 0 -- -- 69
2018-09-09 06:00:00 16.5 8 Noroeste 16 Noroeste 0 -- -- 68
2018-09-09 05:00:00 16.8 7 Noroeste 15 Oeste 0 -- -- 69
2018-09-09 04:00:00 16.7 7 Noroeste 13 Norte 0 -- -- 67
2018-09-09 03:00:00 17.4 6 Norte 24 Norte 0 -- -- 69
2018-09-09 02:00:00 17.7 12 Norte 28 Nordeste 0 -- -- 66
2018-09-09 01:00:00 17.9 12 Norte 26 Nordeste 0 -- -- 64
2018-09-09 00:00:00 18.5 16 Nordeste 30 Norte 0 -- -- 60
2018-09-08 23:00:00 18.5 13 Norte 22 Nordeste 0 -- -- 57
2018-09-08 22:00:00 18.7 14 Nordeste 28 Norte 0 -- -- 56
2018-09-08 21:00:00 18.7 10 Nordeste 28 Nordeste 0 -- -- 62
2018-09-08 20:00:00 19.6 14 Nordeste 30 Este 0 -- -- 71
2018-09-08 19:00:00 21.2 18 Nordeste 35 Este 0 -- -- 66
2018-09-08 18:00:00 22.1 22 Nordeste 37 Nordeste 0 -- -- 63
2018-09-08 17:00:00 21.4 24 Nordeste 40 Este 0 -- -- 66
2018-09-08 16:00:00 23.3 24 Este 45 Nordeste 0 -- -- 59
2018-09-08 15:00:00 22.9 28 Nordeste 45 Este 0 -- -- 56
2018-09-08 14:00:00 21.9 28 Nordeste 48 Nordeste 0 -- -- 65
2018-09-08 13:00:00 23 30 Nordeste 48 Nordeste 0 -- -- 58
2018-09-08 12:00:00 22.9 28 Nordeste 44 Este 0 -- -- 64
2018-09-08 11:00:00 22.5 25 Nordeste 38 Nordeste 0 -- -- 52
2018-09-08 10:00:00 20.7 21 Nordeste 37 Nordeste 0 -- -- 63
2018-09-08 09:00:00 19.2 14 Nordeste 25 Norte 0 -- -- 64
2018-09-08 08:00:00 16.1 7 Norte 13 Noroeste 0 -- -- 73
2018-09-08 07:00:00 16 7 Noroeste 19 Noroeste 0 -- -- 73
2018-09-08 06:00:00 16.2 9 Noroeste 17 Norte 0 -- -- 75
2018-09-08 05:00:00 16.6 6 Noroeste 11 Noroeste 0 -- -- 79
2018-09-08 04:00:00 17.2 2 Noroeste 12 Norte 0 -- -- 79
2018-09-08 03:00:00 16.8 5 Noroeste 10 Noroeste 0 -- -- 76
2018-09-08 02:00:00 16.9 8 Noroeste 15 Nordeste 0 -- -- 78
2018-09-08 01:00:00 17.5 4 Norte 13 Norte 0 -- -- 77
2018-09-08 00:00:00 17.3 5 Noroeste 17 Este 0 -- -- 77
2018-09-07 23:00:00 17.8 3 Oeste 21 Este 0 -- -- 77
2018-09-07 22:00:00 18.7 8 Nordeste 24 Nordeste 0 -- -- 75
2018-09-07 21:00:00 19.1 12 Nordeste 21 Nordeste 0 -- -- 72
2018-09-07 20:00:00 19.5 13 Nordeste 30 Nordeste 0 -- -- 83
2018-09-07 19:00:00 20.1 20 Nordeste 31 Nordeste 0 -- -- 80
2018-09-07 18:00:00 20.7 18 Nordeste 34 Nordeste 0 -- -- 76
2018-09-07 17:00:00 21.6 22 Nordeste 39 Nordeste 0 -- -- 70
2018-09-07 16:00:00 23 25 Nordeste 41 Este 0 -- -- 64
2018-09-07 15:00:00 22.5 23 Nordeste 45 Nordeste 0 -- -- 65
2018-09-07 14:00:00 23.2 22 Nordeste 42 Este 0 -- -- 64
2018-09-07 13:00:00 23.6 26 Nordeste 43 Este 0 -- -- 59
2018-09-07 12:00:00 23.9 22 Este 38 Este 0 -- -- 65
2018-09-07 11:00:00 21.9 24 Nordeste 48 Nordeste 0 -- -- 71
2018-09-07 10:00:00 20.8 23 Nordeste 43 Este 0 -- -- 75
2018-09-07 09:00:00 18.8 14 Nordeste 22 Norte 0 -- -- 78
2018-09-07 08:00:00 17.3 9 Norte 17 Norte 0 -- -- 74
2018-09-07 07:00:00 17.4 11 Norte 21 Norte 0 -- -- 79
2018-09-07 06:00:00 17.4 10 Norte 24 Nordeste 0 -- -- 78
2018-09-07 05:00:00 17.4 9 Nordeste 21 Nordeste 0 -- -- 81
2018-09-07 04:00:00 17.5 9 Norte 12 Norte 0 -- -- 83
2018-09-07 03:00:00 18.2 0 Calma 19 Norte 0 -- -- 85
2018-09-07 02:00:00 17.8 4 Norte 19 Nordeste 0 -- -- 84
2018-09-07 01:00:00 18.5 3 Noroeste 22 Nordeste 0 -- -- 86
2018-09-07 00:00:00 19.1 15 Nordeste 27 Nordeste 0 -- -- 86
2018-09-06 23:00:00 19.3 14 Nordeste 25 Nordeste 0 -- -- 87
2018-09-06 22:00:00 19.3 16 Nordeste 26 Nordeste 0 -- -- 88
2018-09-06 21:00:00 19.5 12 Nordeste 24 Nordeste 0 -- -- 87
2018-09-06 20:00:00 19.8 17 Nordeste 31 Nordeste 0 -- -- 84
2018-09-06 19:00:00 21.2 18 Nordeste 33 Nordeste 0 -- -- 79
2018-09-06 18:00:00 20.9 21 Nordeste 35 Nordeste 0 -- -- 81
2018-09-06 17:00:00 21.7 18 Nordeste 37 Nordeste 0 -- -- 76
2018-09-06 16:00:00 22 26 Nordeste 38 Nordeste 0 -- -- 74
2018-09-06 15:00:00 24.3 23 Nordeste 41 Este 0 -- -- 65
2018-09-06 14:00:00 23.9 24 Nordeste 41 Este 0 -- -- 67
2018-09-06 13:00:00 23.2 21 Nordeste 40 Nordeste 0 -- -- 71
2018-09-06 12:00:00 21.7 24 Nordeste 42 Nordeste 0 -- -- 76
2018-09-06 11:00:00 20.9 20 Nordeste 36 Nordeste 0 -- -- 82
2018-09-06 10:00:00 19.8 18 Nordeste 33 Nordeste 0 -- -- 89
2018-09-06 09:00:00 19.4 17 Nordeste 29 Nordeste 0 -- -- 85
2018-09-06 08:00:00 18.7 9 Nordeste 22 Nordeste 0 -- -- 92
2018-09-06 07:00:00 18.9 16 Nordeste 22 Nordeste 0 -- -- 90
2018-09-06 06:00:00 18.9 16 Nordeste 32 Nordeste 0 -- -- 89
2018-09-06 05:00:00 19 15 Nordeste 30 Nordeste 0 -- -- 89
2018-09-06 04:00:00 19 18 Nordeste 32 Nordeste 0 -- -- 88
2018-09-06 03:00:00 19.1 15 Nordeste 31 Nordeste 0 -- -- 88
2018-09-06 02:00:00 19.1 16 Nordeste 24 Nordeste 0 -- -- 85
2018-09-06 01:00:00 19.1 9 Nordeste 25 Nordeste 0 -- -- 86
2018-09-06 00:00:00 19.5 15 Nordeste 24 Nordeste 0 -- -- 85
2018-09-05 23:00:00 19.7 13 Nordeste 28 Nordeste 0 -- -- 79
2018-09-05 22:00:00 19.7 11 Nordeste 26 Nordeste 0 -- -- 84
2018-09-05 21:00:00 20 18 Nordeste 25 Nordeste 0 -- -- 82
2018-09-05 20:00:00 20.4 18 Nordeste 33 Nordeste 0 -- -- 83
2018-09-05 19:00:00 20.8 23 Nordeste 36 Nordeste 0 -- -- 81
2018-09-05 18:00:00 23.1 24 Nordeste 37 Nordeste 0 -- -- 68
2018-09-05 17:00:00 23.9 22 Nordeste 39 Nordeste 0 -- -- 69
2018-09-05 16:00:00 23.7 22 Nordeste 41 Nordeste 0 -- -- 67
2018-09-05 15:00:00 24.2 28 Nordeste 48 Nordeste 0 -- -- 64
2018-09-05 14:00:00 24.2 28 Nordeste 46 Nordeste 0 -- -- 67
2018-09-05 13:00:00 24 28 Nordeste 43 Este 0 -- -- 63
2018-09-05 12:00:00 23.3 27 Nordeste 40 Este 0 -- -- 68
2018-09-05 11:00:00 22.8 22 Nordeste 39 Nordeste 0 -- -- 67
2018-09-05 10:00:00 21.3 23 Nordeste 37 Este 0 -- -- 77
2018-09-05 09:00:00 20.1 16 Nordeste 26 Nordeste 0 -- -- 80
2018-09-05 08:00:00 18 9 Nordeste 26 Nordeste 0 -- -- 86
2018-09-05 07:00:00 18 16 Nordeste 26 Nordeste 0 -- -- 86
2018-09-05 06:00:00 17.9 9 Nordeste 18 Nordeste 0 -- -- 75
2018-09-05 05:00:00 17.9 8 Norte 14 Norte 0 -- -- 74
2018-09-05 04:00:00 18.1 4 Norte 14 Norte 0 -- -- 83
2018-09-05 03:00:00 18.2 9 Norte 14 Norte 0 -- -- 81
2018-09-05 02:00:00 18.3 9 Nordeste 16 Nordeste 0 -- -- 75
2018-09-05 01:00:00 18.7 8 Nordeste 18 Norte 0 -- -- 78
2018-09-05 00:00:00 18.7 6 Noroeste 20 Nordeste 0 -- -- 77
2018-09-04 23:00:00 18.6 11 Nordeste 20 Nordeste 0 -- -- 78
2018-09-04 22:00:00 19.2 9 Nordeste 24 Nordeste 0 -- -- 82
2018-09-04 21:00:00 19.7 12 Nordeste 23 Nordeste 0 -- -- 77
2018-09-04 20:00:00 20.5 15 Nordeste 27 Nordeste 0 -- -- 71
2018-09-04 19:00:00 22 17 Nordeste 29 Nordeste 0 -- -- 71
2018-09-04 18:00:00 21.9 15 Nordeste 32 Este 0 -- -- 75
2018-09-04 17:00:00 22.9 19 Nordeste 32 Este 0 -- -- 72
2018-09-04 16:00:00 22.9 22 Nordeste 41 Nordeste 0 -- -- 72
2018-09-04 15:00:00 24.1 22 Nordeste 42 Este 0 -- -- 66
2018-09-04 14:00:00 24.5 24 Nordeste 42 Este 0 -- -- 63
2018-09-04 13:00:00 24.3 22 Nordeste 41 Nordeste 0 -- -- 63
2018-09-04 12:00:00 23.6 22 Nordeste 41 Este 0 -- -- 65
2018-09-04 11:00:00 22.7 24 Nordeste 36 Nordeste 0 -- -- 68
2018-09-04 10:00:00 21.9 20 Nordeste 30 Nordeste 0 -- -- 67
2018-09-04 09:00:00 19.1 13 Nordeste 24 Nordeste 0 -- -- 86
2018-09-04 08:00:00 17.5 9 Norte 15 Norte 0 -- -- 85
2018-09-04 07:00:00 17.5 9 Norte 16 Nordeste 0 -- -- 84
2018-09-04 06:00:00 17.6 8 Norte 22 Nordeste 0 -- -- 85
2018-09-04 05:00:00 17.7 7 Norte 18 Nordeste 0 -- -- 85
2018-09-04 04:00:00 17.9 9 Norte 20 Nordeste 0 -- -- 84
2018-09-04 03:00:00 17.9 9 Norte 16 Norte 0 -- -- 82
2018-09-04 02:00:00 18.4 9 Norte 19 Nordeste 0 -- -- 79
2018-09-04 01:00:00 18.4 13 Nordeste 21 Nordeste 0 -- -- 77
2018-09-04 00:00:00 18.8 10 Nordeste 23 Nordeste 0 -- -- 77
2018-09-03 23:00:00 18.7 4 Nordeste 17 Nordeste 0 -- -- 76
2018-09-03 22:00:00 19.2 5 Norte 17 Nordeste 0 -- -- 78
2018-09-03 21:00:00 19.7 8 Nordeste 20 Nordeste 0 -- -- 82
2018-09-03 20:00:00 20.7 11 Nordeste 25 Nordeste 0 -- -- 76
2018-09-03 19:00:00 21.9 18 Nordeste 30 Nordeste 0 -- -- 74
2018-09-03 18:00:00 23.2 19 Nordeste 31 Este 0 -- -- 68
2018-09-03 17:00:00 23.9 23 Nordeste 40 Nordeste 0 -- -- 66
2018-09-03 16:00:00 24.4 21 Nordeste 39 Este 0 -- -- 64
2018-09-03 15:00:00 24.7 22 Nordeste 45 Nordeste 0 -- -- 60
2018-09-03 14:00:00 24.6 22 Nordeste 39 Este 0 -- -- 62
2018-09-03 13:00:00 24 26 Nordeste 40 Nordeste 0 -- -- 61
2018-09-03 12:00:00 24.4 15 Nordeste 33 Este 0 -- -- 60
2018-09-03 11:00:00 22.7 19 Nordeste 33 Nordeste 0 -- -- 64
2018-09-03 10:00:00 21.7 17 Nordeste 28 Este 0 -- -- 66
2018-09-03 09:00:00 19.4 14 Nordeste 24 Nordeste 0 -- -- 78
2018-09-03 08:00:00 17.2 9 Norte 19 Nordeste 0 -- -- 82
2018-09-03 07:00:00 17.2 14 Norte 22 Norte 0 -- -- 83
2018-09-03 06:00:00 17 10 Norte 25 Nordeste 0 -- -- 84
2018-09-03 05:00:00 16.9 10 Norte 17 Norte 0 -- -- 82
2018-09-03 04:00:00 17 8 Noroeste 12 Noroeste 0 -- -- 82
2018-09-03 03:00:00 17.6 5 Norte 11 Noroeste 0 -- -- 85
2018-09-03 02:00:00 17.5 7 Noroeste 12 Noroeste 0 -- -- 85
2018-09-03 01:00:00 18.1 0 Calma 10 Noroeste 0 -- -- 86
2018-09-03 00:00:00 18.1 5 Noroeste 9 Noroeste 0 -- -- 82
2018-09-02 23:00:00 18.4 4 Noroeste 9 Noroeste 0 -- -- 81
2018-09-02 22:00:00 18.9 5 Norte 9 Norte 0 -- -- 82
2018-09-02 21:00:00 19.6 7 Nordeste 21 Nordeste 0 -- -- 83
2018-09-02 20:00:00 21.2 4 Nordeste 14 Este 0 -- -- 75
2018-09-02 19:00:00 22.8 11 Este 29 Nordeste 0 -- -- 66
2018-09-02 18:00:00 21.3 20 Nordeste 37 Nordeste 0 -- -- 75
2018-09-02 17:00:00 21.7 23 Nordeste 40 Nordeste 0 -- -- 75
2018-09-02 16:00:00 24.3 24 Este 41 Este 0 -- -- 60
2018-09-02 15:00:00 24.2 22 Nordeste 35 Nordeste 0 -- -- 58
2018-09-02 14:00:00 23.5 22 Nordeste 33 Este 0 -- -- 61
2018-09-02 13:00:00 23.1 21 Este 32 Nordeste 0 -- -- 65
2018-09-02 12:00:00 22.6 15 Nordeste 27 Este 0 -- -- 65
2018-09-02 11:00:00 22.9 13 Este 25 Este 0 -- -- 66
2018-09-02 10:00:00 22.1 14 Nordeste 21 Nordeste 0 -- -- 63
2018-09-02 09:00:00 19.6 3 Nordeste 10 Noroeste 0 -- -- 71
2018-09-02 08:00:00 17.1 7 Noroeste 17 Noroeste 0 -- -- 77
2018-09-02 07:00:00 17.1 8 Noroeste 13 Noroeste 0 -- -- 77
2018-09-02 06:00:00 16.6 9 Noroeste 12 Noroeste 0 -- -- 75
2018-09-02 05:00:00 17.3 3 Noroeste 17 Nordeste 0 -- -- 75
2018-09-02 04:00:00 17.7 8 Norte 15 Noroeste 0 -- -- 79
2018-09-02 03:00:00 17.9 5 Norte 15 Noroeste 0 -- -- 81
2018-09-02 02:00:00 18.8 6 Oeste 12 Oeste 0 -- -- 81
2018-09-02 01:00:00 17.9 3 Nordeste 11 Nordeste 0 -- -- 83
2018-09-02 00:00:00 19 4 Sudoeste 13 Este 0 -- -- 81
2018-09-01 23:00:00 19.2 9 Nordeste 16 Nordeste 0 -- -- 82
2018-09-01 22:00:00 19.8 9 Nordeste 21 Este 0 -- -- 82
2018-09-01 21:00:00 19.8 14 Nordeste 28 Nordeste 0 -- -- 84
2018-09-01 20:00:00 20.2 18 Nordeste 27 Nordeste 0 -- -- 81
2018-09-01 19:00:00 21.3 15 Nordeste 33 Este 0 -- -- 76
2018-09-01 18:00:00 22.5 23 Nordeste 33 Este 0 -- -- 70
2018-09-01 17:00:00 23.9 20 Nordeste 35 Nordeste 0 -- -- 65
2018-09-01 16:00:00 24.7 19 Nordeste 31 Este 0 -- -- 57
2018-09-01 15:00:00 24.8 20 Este 36 Este 0 -- -- 59
2018-09-01 14:00:00 24.6 21 Este 38 Nordeste 0 -- -- 60
2018-09-01 13:00:00 24 25 Nordeste 37 Nordeste 0 -- -- 61
2018-09-01 12:00:00 23.8 21 Nordeste 35 Nordeste 0 -- -- 59
2018-09-01 11:00:00 22.6 20 Nordeste 31 Este 0 -- -- 62
2018-09-01 10:00:00 21.3 19 Nordeste 31 Este 0 -- -- 67
2018-09-01 09:00:00 19.2 13 Nordeste 20 Nordeste 0 -- -- 66
2018-09-01 08:00:00 16.3 10 Noroeste 15 Noroeste 0 -- -- 73
2018-09-01 07:00:00 16.5 6 Noroeste 13 Noroeste 0 -- -- 74
2018-09-01 06:00:00 16.5 9 Oeste 14 Oeste 0 -- -- 79
2018-09-01 05:00:00 16.6 3 Noroeste 15 Noroeste 0 -- -- 80
2018-09-01 04:00:00 16.8 4 Noroeste 13 Noroeste 0 -- -- 81
2018-09-01 03:00:00 17 5 Norte 17 Oeste 0 -- -- 76
2018-09-01 02:00:00 17.3 8 Oeste 15 Nordeste 0 -- -- 80
2018-09-01 01:00:00 17.5 7 Noroeste 17 Oeste 0 -- -- 75
2018-09-01 00:00:00 17.7 7 Oeste 13 Norte 0 -- -- 80
2018-08-31 23:00:00 18 4 Este 13 Oeste 0 -- -- 76
2018-08-31 22:00:00 18.7 3 Sur 22 Nordeste 0 -- -- 74
2018-08-31 21:00:00 19.4 13 Nordeste 23 Nordeste 0 -- -- 73
2018-08-31 20:00:00 20.5 12 Nordeste 30 Nordeste 0 -- -- 71
2018-08-31 19:00:00 22.1 20 Nordeste 32 Nordeste 0 -- -- 63
2018-08-31 18:00:00 22.7 22 Nordeste 37 Nordeste 0 -- -- 63
2018-08-31 17:00:00 23.7 23 Este 37 Este 0 -- -- 61
2018-08-31 16:00:00 24.7 23 Nordeste 45 Nordeste 0 -- -- 58
2018-08-31 15:00:00 24.8 25 Nordeste 51 Este 0 -- -- 55
2018-08-31 14:00:00 24.6 30 Nordeste 48 Este 0 -- -- 56
2018-08-31 13:00:00 24.3 26 Nordeste 51 Nordeste 0 -- -- 58
2018-08-31 12:00:00 23.3 28 Nordeste 46 Este 0 -- -- 61
2018-08-31 11:00:00 22.3 26 Nordeste 55 Nordeste 0 -- -- 61
2018-08-31 10:00:00 21.4 19 Nordeste 28 Nordeste 0 -- -- 65
2018-08-31 09:00:00 19.1 17 Nordeste 28 Nordeste 0 -- -- 72
2018-08-31 08:00:00 16.9 7 Norte 24 Nordeste 0 -- -- 73
2018-08-31 07:00:00 17.8 18 Nordeste 33 Nordeste 0 -- -- 74
2018-08-31 06:00:00 18.1 17 Nordeste 34 Nordeste 0 -- -- 73
2018-08-31 05:00:00 18.3 19 Nordeste 38 Nordeste 0 -- -- 74
2018-08-31 04:00:00 18.4 18 Nordeste 34 Nordeste 0 -- -- 71
2018-08-31 03:00:00 18.6 24 Nordeste 36 Nordeste 0 -- -- 76
2018-08-31 02:00:00 18.2 4 Norte 23 Nordeste 0 -- -- 76
2018-08-31 01:00:00 18.9 12 Nordeste 38 Nordeste 0 -- -- 76
2018-08-31 00:00:00 18.8 14 Nordeste 24 Nordeste 0 -- -- 74
2018-08-30 23:00:00 19.2 7 Nordeste 36 Este 0 -- -- 74
2018-08-30 22:00:00 19.9 31 Nordeste 46 Nordeste 0 -- -- 71
2018-08-30 21:00:00 20.2 21 Nordeste 36 Nordeste 0 -- -- 69
2018-08-30 20:00:00 21.2 22 Nordeste 45 Este 0 -- -- 66
2018-08-30 19:00:00 22.4 21 Nordeste 46 Nordeste 0 -- -- 71
2018-08-30 18:00:00 23.3 28 Nordeste 48 Nordeste 0 -- -- 67
2018-08-30 17:00:00 24.2 26 Nordeste 54 Nordeste 0 -- -- 68
2018-08-30 16:00:00 24.4 31 Nordeste 51 Nordeste 0 -- -- 63
2018-08-30 15:00:00 24.2 33 Nordeste 55 Nordeste 0 -- -- 63
2018-08-30 14:00:00 23.9 33 Nordeste 54 Nordeste 0 -- -- 63
2018-08-30 13:00:00 23.8 32 Nordeste 55 Nordeste 0 -- -- 65
2018-08-30 12:00:00 23.6 30 Nordeste 48 Nordeste 0 -- -- 63
2018-08-30 11:00:00 22.5 33 Nordeste 47 Nordeste 0 -- -- 67
2018-08-30 10:00:00 21.4 27 Nordeste -- -- -- -- -- 69
2018-08-30 09:00:00 19.7 27 Nordeste 40 Este 0 -- -- 73
2018-08-30 08:00:00 17.8 17 Nordeste 39 Este 0 -- -- 84
2018-08-30 07:00:00 18 18 Nordeste 34 Nordeste 0 -- -- 83
2018-08-30 06:00:00 18.2 13 Nordeste 33 Nordeste 0 -- -- 81
2018-08-30 05:00:00 18.5 18 Nordeste 32 Nordeste 0 -- -- 74
2018-08-30 04:00:00 18.6 21 Nordeste 35 Nordeste 0 -- -- 76
2018-08-30 03:00:00 18.6 13 Nordeste 41 Nordeste 0 -- -- 79
2018-08-30 02:00:00 18.8 15 Nordeste 33 Nordeste 0 -- -- 73
2018-08-30 01:00:00 18.7 19 Nordeste 38 Nordeste 0 -- -- 74
2018-08-30 00:00:00 19.1 22 Nordeste 40 Nordeste 0 -- -- 76
2018-08-29 23:00:00 19.3 22 Nordeste 41 Nordeste 0 -- -- 76
2018-08-29 22:00:00 19.3 23 Nordeste 36 Nordeste 0 -- -- 75
2018-08-29 21:00:00 19.5 15 Nordeste 49 Este 0 -- -- 77
2018-08-29 20:00:00 19.8 27 Nordeste 49 Nordeste 0 -- -- 79
2018-08-29 19:00:00 20.6 31 Nordeste 54 Este 0 -- -- 79
2018-08-29 18:00:00 21.3 31 Nordeste 55 Nordeste 0 -- -- 79
2018-08-29 17:00:00 23.2 30 Nordeste 57 Nordeste 0 -- -- 71
2018-08-29 16:00:00 23.7 36 Nordeste 57 Nordeste 0 -- -- 64
2018-08-29 15:00:00 24.2 33 Nordeste 61 Nordeste 0 -- -- 63
2018-08-29 14:00:00 23.9 36 Nordeste 75 Este 0 -- -- 63
2018-08-29 13:00:00 22.9 40 Nordeste 58 Este 0 -- -- 67
2018-08-29 12:00:00 23.1 35 Nordeste 54 Nordeste 0 -- -- 67
2018-08-29 11:00:00 22.2 35 Nordeste 56 Nordeste 0 -- -- 72
2018-08-29 10:00:00 21.8 28 Nordeste 45 Nordeste 0 -- -- 73
2018-08-29 09:00:00 20.1 25 Nordeste 44 Nordeste 0 -- -- 72
2018-08-29 08:00:00 18.1 16 Nordeste 36 Nordeste 0 -- -- 81
2018-08-29 07:00:00 18.4 23 Nordeste 37 Nordeste 0 -- -- 83
2018-08-29 06:00:00 18.2 19 Nordeste 28 Nordeste 0 -- -- 79
2018-08-29 05:00:00 18.2 19 Nordeste 34 Nordeste 0 -- -- 78
2018-08-29 04:00:00 18.2 15 Nordeste 32 Nordeste 0 -- -- 77
2018-08-29 03:00:00 18.2 15 Nordeste 30 Nordeste 0 -- -- 76
2018-08-29 02:00:00 18.3 17 Nordeste 29 Nordeste 0 -- -- 75
2018-08-29 01:00:00 18.3 12 Nordeste 31 Nordeste 0 -- -- 77
2018-08-29 00:00:00 18.3 9 Nordeste 30 Nordeste 0 -- -- 75
2018-08-28 23:00:00 18.7 16 Nordeste 30 Nordeste 0 -- -- 77
2018-08-28 22:00:00 18.9 13 Nordeste 24 Nordeste 0 -- -- 79
2018-08-28 21:00:00 19.2 14 Nordeste 31 Nordeste 0 -- -- 82
2018-08-28 20:00:00 20 21 Nordeste 36 Nordeste 0 -- -- 77
2018-08-28 19:00:00 21.8 23 Nordeste 37 Este 0 -- -- 68
2018-08-28 18:00:00 22.9 23 Nordeste 39 Nordeste 0 -- -- 63
2018-08-28 17:00:00 23.5 26 Nordeste 41 Este 0 -- -- 63
2018-08-28 16:00:00 24.3 25 Nordeste 42 Este 0 -- -- 60
2018-08-28 15:00:00 24.7 26 Nordeste 37 Este 0 -- -- 57
2018-08-28 14:00:00 24.6 23 Nordeste 37 Este 0 -- -- 57
2018-08-28 13:00:00 24.4 22 Nordeste 36 Nordeste 0 -- -- 59
2018-08-28 12:00:00 23.9 20 Nordeste 32 Este 0 -- -- 60
2018-08-28 11:00:00 23.3 16 Nordeste 31 Este 0 -- -- 64
2018-08-28 10:00:00 22.1 12 Nordeste 22 Nordeste 0 -- -- 63
2018-08-28 09:00:00 19.9 12 Nordeste 17 Nordeste 0 -- -- 71
2018-08-28 08:00:00 17.1 6 Norte 16 Norte 0 -- -- 79
2018-08-28 07:00:00 16.9 4 Norte 17 Noroeste 0 -- -- 78
2018-08-28 06:00:00 17.5 10 Norte 22 Norte 0 -- -- 82
2018-08-28 05:00:00 17.5 11 Norte 20 Norte 0 -- -- 80
2018-08-28 04:00:00 17.7 9 Norte 28 Nordeste 0 -- -- 78
2018-08-28 03:00:00 18.4 17 Nordeste 27 Norte 0 -- -- 82
2018-08-28 02:00:00 18.2 14 Nordeste 23 Nordeste 0 -- -- 78
2018-08-28 01:00:00 18.3 12 Nordeste 23 Nordeste 0 -- -- 75
2018-08-28 00:00:00 18.6 12 Nordeste 23 Nordeste 0 -- -- 73
2018-08-27 23:00:00 18.7 8 Nordeste 14 Nordeste 0 -- -- 73
2018-08-27 22:00:00 19.2 5 Nordeste 12 Este 0 -- -- 79
2018-08-27 21:00:00 20.1 8 Nordeste 14 Este 0 -- -- 77
2018-08-27 20:00:00 21.3 9 Este 17 Este 0 -- -- 74
2018-08-27 19:00:00 23.2 13 Nordeste 27 Este 0 -- -- 66
2018-08-27 18:00:00 23.4 18 Nordeste 29 Este 0 -- -- 66
2018-08-27 17:00:00 24.4 19 Nordeste 36 Este 0 -- -- 62
2018-08-27 16:00:00 24.5 22 Nordeste 37 Este 0 -- -- 61
2018-08-27 15:00:00 24.7 22 Nordeste 38 Este 0 -- -- 61
2018-08-27 14:00:00 24.3 26 Nordeste 40 Este 0 -- -- 62
2018-08-27 13:00:00 24.7 22 Nordeste 40 Este 0 -- -- 60
2018-08-27 12:00:00 23.5 25 Nordeste 48 Este 0 -- -- 65
2018-08-27 11:00:00 22.9 22 Nordeste 34 Este 0 -- -- 68
2018-08-27 10:00:00 22.5 16 Este 25 Este 0 -- -- 70
2018-08-27 09:00:00 20.6 11 Nordeste 18 Nordeste 0 -- -- 73
2018-08-27 08:00:00 17.7 8 Norte 15 Nordeste 0 -- -- 74
2018-08-27 07:00:00 17.8 9 Nordeste 15 Nordeste 0 -- -- 72
2018-08-27 06:00:00 17.7 8 Norte 14 Nordeste 0 -- -- 77
2018-08-27 05:00:00 17.9 9 Nordeste 12 Norte 0 -- -- 83
2018-08-27 04:00:00 17.9 5 Noroeste 10 Nordeste 0 -- -- 75
2018-08-27 03:00:00 18 5 Nordeste 9 Nordeste 0 -- -- 82
2018-08-27 02:00:00 18.4 5 Norte 14 Nordeste 0 -- -- 82
2018-08-27 01:00:00 19.1 10 Nordeste 15 Nordeste 0 -- -- 86
2018-08-27 00:00:00 19.5 6 Nordeste 13 Nordeste 0 -- -- 78
2018-08-26 23:00:00 19.9 7 Nordeste 13 Nordeste 0 -- -- 69
2018-08-26 22:00:00 20.2 5 Nordeste 13 Este 0 -- -- 81
2018-08-26 21:00:00 20.9 8 Nordeste 18 Este 0 -- -- 75
2018-08-26 20:00:00 22.4 12 Este 28 Este 0 -- -- 67
2018-08-26 19:00:00 24.4 18 Nordeste 28 Este 0 -- -- 57
2018-08-26 18:00:00 25.9 20 Este 32 Este 0 -- -- 53
2018-08-26 17:00:00 26.4 21 Nordeste 33 Nordeste 0 -- -- 45
2018-08-26 16:00:00 26.9 21 Este 32 Nordeste 0 -- -- 52
2018-08-26 15:00:00 27.3 22 Nordeste 37 Este 0 -- -- 46
2018-08-26 14:00:00 27.3 24 Nordeste 35 Este 0 -- -- 42
2018-08-26 13:00:00 27.4 21 Nordeste 38 Nordeste 0 -- -- 42
2018-08-26 12:00:00 28.2 25 Nordeste 40 Este 0 -- -- 36
2018-08-26 11:00:00 26.7 18 Nordeste 26 Este 0 -- -- 50
2018-08-26 10:00:00 24.8 13 Este 22 Este 0 -- -- 56
2018-08-26 09:00:00 23.4 10 Nordeste 19 Nordeste 0 -- -- 37
2018-08-26 08:00:00 21.4 8 Norte 17 Norte 0 -- -- 30
2018-08-26 07:00:00 20.6 7 Nordeste 18 Nordeste 0 -- -- 34
2018-08-26 06:00:00 20.9 8 Norte 17 Nordeste 0 -- -- 32
2018-08-26 05:00:00 21 12 Nordeste 19 Norte 0 -- -- 32
2018-08-26 04:00:00 21.2 8 Nordeste 16 Nordeste 0 -- -- 31
2018-08-26 03:00:00 21.8 9 Nordeste 17 Nordeste 0 -- -- 29
2018-08-26 02:00:00 22 6 Nordeste 15 Nordeste 0 -- -- 34
2018-08-26 01:00:00 22.9 6 Nordeste 11 Nordeste 0 -- -- 33
2018-08-26 00:00:00 23.5 6 Norte 20 Norte 0 -- -- 32
2018-08-25 23:00:00 23.4 9 Norte 19 Norte 0 -- -- 34
2018-08-25 22:00:00 21.5 3 Noroeste 6 Nordeste 0 -- -- 70
2018-08-25 21:00:00 22.3 3 Nordeste 9 Este 0 -- -- 71
2018-08-25 20:00:00 23.9 8 Este 21 Este 0 -- -- 61
2018-08-25 19:00:00 27.5 11 Este 26 Nordeste 0 -- -- 43
2018-08-25 18:00:00 28.8 17 Este 27 Este 0 -- -- 35
2018-08-25 17:00:00 30.3 14 Este 26 Nordeste 0 -- -- 34
2018-08-25 16:00:00 30.3 18 Este 30 Este 0 -- -- 31
2018-08-25 15:00:00 31.2 21 Nordeste 34 Este 0 -- -- 27
2018-08-25 14:00:00 31.1 22 Este 32 Nordeste 0 -- -- 27
2018-08-25 13:00:00 31.4 19 Este 30 Nordeste 0 -- -- 25
2018-08-25 12:00:00 30.3 16 Nordeste 27 Este 0 -- -- 28
2018-08-25 11:00:00 29.5 16 Este 23 Este 0 -- -- 26
2018-08-25 10:00:00 29 11 Nordeste 19 Nordeste 0 -- -- 29
2018-08-25 09:00:00 26.3 4 Nordeste 11 Noroeste 0 -- -- 31
2018-08-25 08:00:00 23.6 4 Noroeste 9 Noroeste 0 -- -- 31
2018-08-25 07:00:00 24.1 6 Norte 12 Noroeste 0 -- -- 29
2018-08-25 06:00:00 24.2 6 Noroeste 10 Noroeste 0 -- -- 29
2018-08-25 05:00:00 24.3 7 Noroeste 10 Norte 0 -- -- 29
2018-08-25 04:00:00 23.6 3 Noroeste 12 Noroeste 0 -- -- 32
2018-08-25 03:00:00 24.1 7 Noroeste 10 Norte 0 -- -- 33
2018-08-25 02:00:00 23.5 3 Norte 9 Noroeste 0 -- -- 37
2018-08-25 01:00:00 23.1 3 Sudoeste 7 Este 0 -- -- 45
2018-08-25 00:00:00 23.6 0 Calma 9 Noroeste 0 -- -- 39